createdAt,value
2023-03-27T00:00:33.472Z,72.84
2023-03-27T00:03:01.393Z,73.06
2023-03-27T00:05:28.082Z,73.42
2023-03-27T00:07:54.564Z,73.61
2023-03-27T00:10:22.123Z,73.48
2023-03-27T00:12:51.091Z,73.74
2023-03-27T00:15:17.645Z,74.64
2023-03-27T00:17:46.040Z,74.19
2023-03-27T00:20:13.965Z,74.87
2023-03-27T00:22:40.373Z,74.34
2023-03-27T00:25:08.870Z,74.44
2023-03-27T00:27:35.397Z,74.46
2023-03-27T00:30:01.885Z,74.72
2023-03-27T00:32:28.313Z,75.34
2023-03-27T00:34:54.771Z,74.92
2023-03-27T00:37:21.171Z,75.47
2023-03-27T00:39:48.914Z,75.52
2023-03-27T00:42:16.611Z,75.62
2023-03-27T00:44:43.036Z,75.56
2023-03-27T00:47:09.975Z,75.50
2023-03-27T00:49:36.625Z,75.51
2023-03-27T00:52:03.466Z,76.09
2023-03-27T00:54:31.068Z,76.29
2023-03-27T00:56:59.749Z,75.60
2023-03-27T00:59:31.295Z,75.61
2023-03-27T01:01:58.632Z,75.46
2023-03-27T01:04:25.134Z,75.68
2023-03-27T01:06:52.512Z,75.68
2023-03-27T01:09:20.590Z,75.17
2023-03-27T01:12:11.120Z,75.86
2023-03-27T01:15:18.338Z,75.88
2023-03-27T01:17:59.462Z,76.07
2023-03-27T01:20:51.950Z,75.63
2023-03-27T01:24:00.020Z,75.63
2023-03-27T01:26:36.958Z,76.23
2023-03-27T01:29:26.256Z,75.72
2023-03-27T01:32:10.926Z,76.30
2023-03-27T01:34:49.315Z,76.68
2023-03-27T01:37:53.150Z,76.97
2023-03-27T01:40:21.232Z,76.63
2023-03-27T01:43:08.619Z,76.34
2023-03-27T01:45:53.236Z,76.49
2023-03-27T01:48:27.921Z,76.61
2023-03-27T01:50:57.156Z,76.93
2023-03-27T01:53:30.343Z,77.79
2023-03-27T01:56:05.947Z,77.32
2023-03-27T01:58:35.161Z,77.99
2023-03-27T02:01:01.744Z,77.39
2023-03-27T02:03:42.639Z,77.75
2023-03-27T02:06:12.024Z,77.99
2023-03-27T02:08:41.299Z,77.20
2023-03-27T02:11:07.861Z,77.78
2023-03-27T02:13:41.166Z,78.25
2023-03-27T02:16:09.071Z,77.82
2023-03-27T02:18:37.636Z,78.36
2023-03-27T02:21:06.787Z,78.52
2023-03-27T02:23:33.300Z,78.77
2023-03-27T02:25:59.770Z,78.63
2023-03-27T02:28:41.202Z,78.80
2023-03-27T02:31:31.746Z,78.84
2023-03-27T02:34:14.945Z,79.75
2023-03-27T02:36:47.319Z,79.58
2023-03-27T02:39:40.067Z,79.94
2023-03-27T02:42:18.378Z,79.56
2023-03-27T02:44:50.744Z,79.91
2023-03-27T02:47:23.159Z,80.29
2023-03-27T02:49:56.341Z,81.17
2023-03-27T02:52:35.374Z,80.39
2023-03-27T02:55:07.296Z,80.61
2023-03-27T02:57:36.083Z,81.50
2023-03-27T03:00:04.858Z,81.87
2023-03-27T03:02:32.247Z,81.88
2023-03-27T03:05:10.301Z,82.22
2023-03-27T03:07:37.209Z,81.90
2023-03-27T03:10:05.255Z,82.29
2023-03-27T03:12:31.696Z,82.89
2023-03-27T03:14:58.210Z,82.88
2023-03-27T03:17:24.734Z,82.62
2023-03-27T03:19:51.186Z,83.54
2023-03-27T03:22:17.590Z,83.88
2023-03-27T03:24:44.019Z,83.69
2023-03-27T03:27:10.553Z,84.72
2023-03-27T03:29:37.014Z,85.02
2023-03-27T03:32:04.439Z,84.57
2023-03-27T03:34:30.995Z,85.33
2023-03-27T03:36:57.418Z,85.39
2023-03-27T03:39:23.878Z,85.99
2023-03-27T03:41:50.312Z,86.01
2023-03-27T03:44:16.931Z,86.98
2023-03-27T03:46:43.391Z,86.70
2023-03-27T03:49:09.917Z,86.69
2023-03-27T03:51:36.404Z,86.87
2023-03-27T03:54:03.284Z,87.40
2023-03-27T03:56:29.700Z,87.31
2023-03-27T03:58:56.293Z,87.79
2023-03-27T04:01:23.022Z,87.47
2023-03-27T04:03:49.701Z,87.54
2023-03-27T04:06:16.737Z,87.42
2023-03-27T04:08:47.336Z,87.68
2023-03-27T04:11:13.791Z,88.47
2023-03-27T04:13:40.216Z,87.98
2023-03-27T04:16:06.819Z,88.44
2023-03-27T04:18:33.467Z,88.53
2023-03-27T04:20:59.917Z,88.54
2023-03-27T04:23:26.505Z,89.05
2023-03-27T04:25:52.954Z,88.88
2023-03-27T04:28:21.488Z,89.27
2023-03-27T04:30:47.901Z,89.89
2023-03-27T04:33:14.350Z,89.29
2023-03-27T04:35:40.786Z,90.70
2023-03-27T04:38:09.331Z,90.17
2023-03-27T04:40:35.722Z,90.64
2023-03-27T04:43:02.124Z,91.14
2023-03-27T04:45:28.544Z,90.26
2023-03-27T04:47:55.030Z,91.41
2023-03-27T04:50:21.509Z,90.59
2023-03-27T04:52:50.185Z,90.94
2023-03-27T04:55:16.934Z,91.38
2023-03-27T04:57:46.655Z,91.29
2023-03-27T05:00:13.588Z,91.26
2023-03-27T05:02:40.059Z,91.69
2023-03-27T05:05:06.779Z,92.21
2023-03-27T05:07:33.202Z,92.54
2023-03-27T05:09:59.599Z,92.50
2023-03-27T05:12:26.021Z,92.72
2023-03-27T05:14:55.628Z,92.28
2023-03-27T05:17:22.056Z,92.05
2023-03-27T05:19:48.509Z,92.27
2023-03-27T05:22:15.620Z,92.74
2023-03-27T05:24:42.105Z,93.25
2023-03-27T05:27:08.544Z,92.66
2023-03-27T05:29:46.938Z,92.72
2023-03-27T05:32:14.329Z,93.21
2023-03-27T05:34:42.163Z,93.58
2023-03-27T05:37:08.564Z,93.43
2023-03-27T05:39:35.060Z,93.48
2023-03-27T05:42:01.519Z,93.42
2023-03-27T05:44:27.942Z,93.78
2023-03-27T05:46:54.597Z,94.08
2023-03-27T05:49:21.038Z,94.26
2023-03-27T05:51:47.529Z,93.54
2023-03-27T05:54:14.024Z,93.69
2023-03-27T05:56:40.510Z,94.43
2023-03-27T05:59:06.977Z,93.69
2023-03-27T06:01:33.410Z,94.04
2023-03-27T06:04:00.049Z,93.90
2023-03-27T06:06:26.558Z,93.84
2023-03-27T06:08:53.023Z,93.64
2023-03-27T06:11:19.463Z,92.83
2023-03-27T06:13:45.884Z,92.50
2023-03-27T06:16:12.415Z,92.21
2023-03-27T06:18:39.034Z,91.88
2023-03-27T06:21:05.802Z,91.73
2023-03-27T06:23:32.234Z,91.20
2023-03-27T06:25:58.940Z,91.40
2023-03-27T06:28:25.537Z,91.00
2023-03-27T06:30:52.100Z,91.08
2023-03-27T06:33:18.941Z,90.54
2023-03-27T06:35:53.624Z,90.06
2023-03-27T06:38:21.024Z,89.55
2023-03-27T06:40:47.480Z,88.93
2023-03-27T06:43:13.990Z,88.70
2023-03-27T06:45:47.396Z,88.14
2023-03-27T06:48:19.307Z,86.41
2023-03-27T06:50:49.023Z,84.90
2023-03-27T06:53:25.796Z,85.29
2023-03-27T06:55:53.827Z,84.37
2023-03-27T06:58:20.723Z,82.90
2023-03-27T07:00:47.479Z,82.81
2023-03-27T07:03:15.153Z,82.30
2023-03-27T07:05:41.870Z,82.34
2023-03-27T07:08:22.500Z,82.73
2023-03-27T07:10:59.716Z,82.67
2023-03-27T07:13:36.960Z,82.50
2023-03-27T07:16:03.512Z,82.67
2023-03-27T07:18:30.003Z,82.58
2023-03-27T07:20:56.696Z,82.13
2023-03-27T07:23:23.368Z,81.97
2023-03-27T07:25:49.898Z,81.76
2023-03-27T07:28:16.331Z,81.24
2023-03-27T07:30:42.858Z,80.62
2023-03-27T07:33:09.583Z,80.31
2023-03-27T07:35:43.168Z,79.17
2023-03-27T07:38:10.617Z,77.69
2023-03-27T07:40:40.473Z,78.12
2023-03-27T07:43:07.464Z,78.19
2023-03-27T07:45:34.188Z,77.74
2023-03-27T07:48:11.938Z,77.54
2023-03-27T07:50:38.373Z,77.27
2023-03-27T07:53:07.093Z,77.05
2023-03-27T07:55:34.132Z,76.79
2023-03-27T07:58:02.984Z,76.35
2023-03-27T08:00:31.482Z,75.90
2023-03-27T08:03:08.692Z,75.01
2023-03-27T08:05:36.052Z,73.75
2023-03-27T08:08:02.492Z,74.46
2023-03-27T08:10:29.040Z,71.99
2023-03-27T08:12:57.320Z,72.36
2023-03-27T08:15:24.237Z,72.05
2023-03-27T08:17:50.711Z,73.15
2023-03-27T08:20:17.345Z,72.94
2023-03-27T08:22:43.776Z,72.47
2023-03-27T08:25:10.192Z,70.98
2023-03-27T08:27:36.859Z,70.59
2023-03-27T08:30:04.651Z,70.25
2023-03-27T08:32:31.139Z,70.32
2023-03-27T08:34:57.618Z,70.26
2023-03-27T08:37:24.619Z,70.36
2023-03-27T08:39:51.038Z,70.83
2023-03-27T08:42:20.023Z,69.96
2023-03-27T08:44:46.470Z,69.44
2023-03-27T08:47:32.206Z,69.27
2023-03-27T08:49:58.797Z,68.28
2023-03-27T08:52:26.288Z,68.22
2023-03-27T08:54:54.809Z,67.92
2023-03-27T08:57:22.092Z,67.76
2023-03-27T08:59:50.823Z,67.58
2023-03-27T09:02:39.667Z,64.83
2023-03-27T09:05:22.160Z,63.59
2023-03-27T09:08:03.709Z,64.37
2023-03-27T09:10:33.053Z,64.51
2023-03-27T09:13:22.943Z,65.58
2023-03-27T09:16:00.690Z,66.79
2023-03-27T09:18:58.265Z,66.83
2023-03-27T09:21:46.906Z,65.03
2023-03-27T09:24:39.244Z,64.83
2023-03-27T09:27:25.328Z,65.62
2023-03-27T09:30:10.026Z,66.04
2023-03-27T09:32:36.592Z,66.35
2023-03-27T09:35:03.147Z,66.92
2023-03-27T09:37:29.581Z,66.76
2023-03-27T09:39:56.004Z,67.66
2023-03-27T09:42:34.314Z,67.42
2023-03-27T09:45:03.433Z,66.59
2023-03-27T09:47:32.876Z,65.37
2023-03-27T09:50:37.426Z,66.22
2023-03-27T09:53:12.187Z,66.81
2023-03-27T09:55:47.606Z,64.36
2023-03-27T09:58:14.938Z,63.40
2023-03-27T10:00:41.422Z,61.31
2023-03-27T10:03:16.605Z,59.96
2023-03-27T10:05:43.464Z,59.49
2023-03-27T10:08:35.392Z,60.03
2023-03-27T10:11:02.129Z,59.38
2023-03-27T10:13:28.838Z,60.43
2023-03-27T10:16:03.303Z,60.02
2023-03-27T10:18:30.861Z,58.43
2023-03-27T10:20:59.193Z,57.68
2023-03-27T10:23:27.258Z,56.85
2023-03-27T10:25:57.507Z,55.07
2023-03-27T10:28:24.793Z,55.43
2023-03-27T10:31:05.058Z,55.76
2023-03-27T10:33:36.039Z,56.65
2023-03-27T10:36:03.423Z,57.61
2023-03-27T10:38:29.889Z,58.28
2023-03-27T10:40:56.505Z,59.59
2023-03-27T10:43:33.723Z,63.71
2023-03-27T10:46:04.967Z,68.67
2023-03-27T10:48:56.342Z,72.75
2023-03-27T10:51:50.331Z,75.61
2023-03-27T10:54:34.978Z,77.73
2023-03-27T10:57:10.625Z,80.49
2023-03-27T10:59:42.099Z,81.53
2023-03-27T11:02:25.672Z,82.64
2023-03-27T11:04:58.969Z,82.20
2023-03-27T11:07:35.567Z,82.65
2023-03-27T11:10:15.960Z,82.04
2023-03-27T11:12:42.923Z,82.36
2023-03-27T11:15:44.196Z,83.91
2023-03-27T11:18:32.469Z,83.50
2023-03-27T11:21:04.716Z,83.42
2023-03-27T11:23:55.239Z,82.29
2023-03-27T11:26:21.774Z,82.11
2023-03-27T11:28:56.100Z,80.21
2023-03-27T11:31:38.304Z,78.14
2023-03-27T11:34:10.805Z,77.61
2023-03-27T11:36:45.292Z,77.21
2023-03-27T11:39:20.756Z,78.26
2023-03-27T11:41:55.975Z,79.08
2023-03-27T11:44:23.123Z,80.07
2023-03-27T11:46:56.238Z,81.87
2023-03-27T11:49:52.940Z,83.11
2023-03-27T11:52:31.507Z,83.98
2023-03-27T11:55:32.050Z,85.69
2023-03-27T11:58:12.664Z,86.26
2023-03-27T12:00:53.181Z,85.54
2023-03-27T12:03:40.435Z,85.69
2023-03-27T12:06:13.910Z,85.25
2023-03-27T12:09:01.589Z,85.37
2023-03-27T12:11:28.455Z,82.81
2023-03-27T12:14:14.112Z,79.82
2023-03-27T12:16:59.691Z,79.24
2023-03-27T12:19:44.324Z,78.53
2023-03-27T12:22:52.252Z,75.64
2023-03-27T12:25:40.067Z,74.33
2023-03-27T12:28:34.250Z,73.99
2023-03-27T12:31:34.234Z,70.00
2023-03-27T12:34:23.468Z,70.70
2023-03-27T12:36:49.940Z,70.46
2023-03-27T12:39:23.251Z,66.92
2023-03-27T12:41:49.773Z,67.35
2023-03-27T12:44:19.301Z,65.55
2023-03-27T12:47:23.854Z,66.08
2023-03-27T12:49:59.350Z,62.37
2023-03-27T12:52:25.870Z,57.79
2023-03-27T12:55:07.254Z,55.10
2023-03-27T12:57:44.378Z,55.38
2023-03-27T13:00:24.823Z,54.26
2023-03-27T13:03:00.365Z,56.35
2023-03-27T13:05:29.580Z,53.57
2023-03-27T13:08:21.100Z,55.11
2023-03-27T13:10:53.651Z,56.55
2023-03-27T13:13:35.591Z,63.46
2023-03-27T13:16:34.217Z,69.56
2023-03-27T13:19:15.606Z,74.31
2023-03-27T13:21:51.863Z,76.15
2023-03-27T13:24:24.178Z,76.95
2023-03-27T13:26:57.253Z,77.39
2023-03-27T13:29:25.067Z,77.51
2023-03-27T13:31:59.481Z,78.46
2023-03-27T13:34:37.361Z,75.39
2023-03-27T13:37:12.960Z,68.22
2023-03-27T13:39:59.911Z,62.50
2023-03-27T13:42:37.542Z,58.90
2023-03-27T13:45:21.247Z,55.03
2023-03-27T13:48:12.433Z,49.21
2023-03-27T13:51:04.884Z,47.21
2023-03-27T13:53:37.331Z,43.08
2023-03-27T13:56:09.771Z,42.52
2023-03-27T13:59:01.486Z,39.35
2023-03-27T14:01:53.323Z,39.56
2023-03-27T14:04:25.548Z,42.14
2023-03-27T14:07:20.085Z,43.11
2023-03-27T14:09:59.421Z,46.48
2023-03-27T14:12:40.013Z,49.34
2023-03-27T14:15:37.188Z,49.31
2023-03-27T14:18:31.449Z,50.24
2023-03-27T14:21:02.115Z,54.62
2023-03-27T14:23:32.513Z,55.19
2023-03-27T14:26:04.027Z,56.79
2023-03-27T14:28:34.491Z,56.05
2023-03-27T14:31:04.601Z,53.28
2023-03-27T14:33:31.140Z,51.96
2023-03-27T14:36:02.122Z,49.59
2023-03-27T14:38:30.561Z,45.22
2023-03-27T14:41:01.092Z,46.86
2023-03-27T14:43:29.717Z,45.81
2023-03-27T14:45:59.541Z,43.88
2023-03-27T14:48:44.589Z,45.58
2023-03-27T14:51:14.932Z,49.09
2023-03-27T14:53:43.054Z,47.37
2023-03-27T14:56:27.699Z,43.08
2023-03-27T14:58:58.779Z,47.76
2023-03-27T15:01:25.506Z,46.08
2023-03-27T15:03:54.609Z,48.06
2023-03-27T15:06:22.614Z,50.21
2023-03-27T15:08:54.958Z,52.02
2023-03-27T15:11:23.044Z,53.51
2023-03-27T15:13:52.312Z,55.28
2023-03-27T15:16:25.431Z,56.95
2023-03-27T15:19:04.333Z,59.15
2023-03-27T15:21:39.563Z,60.52
2023-03-27T15:24:15.199Z,59.94
2023-03-27T15:26:41.639Z,59.25
2023-03-27T15:29:17.247Z,57.98
2023-03-27T15:31:44.239Z,54.52
2023-03-27T15:34:25.184Z,52.18
2023-03-27T15:36:55.236Z,49.60
2023-03-27T15:39:22.625Z,49.00
2023-03-27T15:41:54.272Z,48.94
2023-03-27T15:44:22.015Z,48.58
2023-03-27T15:46:51.345Z,52.43
2023-03-27T15:49:33.344Z,54.59
2023-03-27T15:52:02.976Z,56.71
2023-03-27T15:54:35.873Z,56.25
2023-03-27T15:57:09.122Z,55.13
2023-03-27T15:59:52.688Z,55.68
2023-03-27T16:02:22.853Z,56.47
2023-03-27T16:04:50.354Z,57.01
2023-03-27T16:07:28.827Z,52.59
2023-03-27T16:10:05.172Z,53.66
2023-03-27T16:12:51.216Z,52.60
2023-03-27T16:15:40.351Z,52.10
2023-03-27T16:18:19.898Z,54.04
2023-03-27T16:20:46.541Z,55.60
2023-03-27T16:23:13.030Z,57.05
2023-03-27T16:25:39.463Z,57.94
2023-03-27T16:28:07.322Z,59.58
2023-03-27T16:30:35.205Z,60.74
2023-03-27T16:33:02.333Z,60.96
2023-03-27T16:35:29.494Z,62.43
2023-03-27T16:37:55.916Z,63.15
2023-03-27T16:40:22.344Z,63.50
2023-03-27T16:42:48.801Z,62.96
2023-03-27T16:45:15.228Z,63.52
2023-03-27T16:47:41.772Z,63.50
2023-03-27T16:50:14.378Z,64.23
2023-03-27T16:52:40.859Z,64.43
2023-03-27T16:55:07.903Z,67.68
2023-03-27T16:57:35.694Z,70.38
2023-03-27T17:00:02.182Z,71.65
2023-03-27T17:02:28.719Z,71.96
2023-03-27T17:04:55.261Z,71.93
2023-03-27T17:07:21.776Z,71.53
2023-03-27T17:09:48.197Z,72.72
2023-03-27T17:12:14.659Z,73.11
2023-03-27T17:14:41.090Z,72.45
2023-03-27T17:17:07.530Z,71.96
2023-03-27T17:19:33.974Z,71.77
2023-03-27T17:22:00.428Z,71.57
2023-03-27T17:24:26.932Z,73.47
2023-03-27T17:26:53.372Z,76.55
2023-03-27T17:29:19.793Z,78.17
2023-03-27T17:31:46.292Z,79.90
2023-03-27T17:34:12.754Z,81.58
2023-03-27T17:36:47.184Z,82.59
2023-03-27T17:39:18.981Z,83.60
2023-03-27T17:41:45.498Z,84.04
2023-03-27T17:44:12.248Z,83.26
2023-03-27T17:46:38.717Z,82.80
2023-03-27T17:49:05.213Z,82.76
2023-03-27T17:51:31.690Z,82.83
2023-03-27T17:53:58.230Z,81.79
2023-03-27T17:56:24.659Z,82.12
2023-03-27T17:58:51.121Z,82.89
2023-03-27T18:01:19.485Z,82.46
2023-03-27T18:03:46.110Z,81.90
2023-03-27T18:06:13.107Z,82.77
2023-03-27T18:08:39.635Z,83.67
2023-03-27T18:11:10.293Z,83.94
2023-03-27T18:13:36.912Z,84.40
2023-03-27T18:16:06.375Z,84.78
2023-03-27T18:18:33.242Z,85.58
2023-03-27T18:20:59.748Z,84.11
2023-03-27T18:23:26.162Z,84.68
2023-03-27T18:25:52.629Z,84.60
2023-03-27T18:28:19.085Z,84.05
2023-03-27T18:30:45.485Z,84.16
2023-03-27T18:33:11.932Z,84.22
2023-03-27T18:35:38.525Z,85.96
2023-03-27T18:38:05.245Z,86.83
2023-03-27T18:40:31.818Z,86.24
2023-03-27T18:42:58.308Z,87.39
2023-03-27T18:45:24.829Z,87.71
2023-03-27T18:47:51.356Z,87.40
2023-03-27T18:50:17.811Z,87.90
2023-03-27T18:52:44.251Z,88.48
2023-03-27T18:55:10.802Z,88.68
2023-03-27T18:57:37.233Z,88.15
2023-03-27T19:00:05.317Z,88.14
2023-03-27T19:02:33.145Z,88.26
2023-03-27T19:04:59.747Z,88.07
2023-03-27T19:07:28.468Z,88.19
2023-03-27T19:09:54.903Z,87.89
2023-03-27T19:12:21.308Z,88.97
2023-03-27T19:14:48.016Z,88.44
2023-03-27T19:17:14.483Z,87.64
2023-03-27T19:19:41.710Z,86.87
2023-03-27T19:22:09.525Z,87.22
2023-03-27T19:24:36.134Z,86.62
2023-03-27T19:27:02.575Z,86.53
2023-03-27T19:29:29.043Z,86.97
2023-03-27T19:31:55.529Z,87.00
2023-03-27T19:34:29.871Z,86.17
2023-03-27T19:37:02.808Z,86.15
2023-03-27T19:39:29.205Z,84.69
2023-03-27T19:41:55.674Z,84.76
2023-03-27T19:44:22.128Z,83.87
2023-03-27T19:46:48.667Z,84.06
2023-03-27T19:49:17.639Z,83.57
2023-03-27T19:51:44.092Z,83.57
2023-03-27T19:54:10.612Z,83.81
2023-03-27T19:56:37.056Z,84.05
2023-03-27T19:59:04.636Z,84.64
2023-03-27T20:01:31.047Z,85.34
2023-03-27T20:03:58.552Z,85.52
2023-03-27T20:06:25.195Z,86.35
2023-03-27T20:08:55.246Z,85.70
2023-03-27T20:11:21.681Z,85.02
2023-03-27T20:13:56.153Z,85.10
2023-03-27T20:16:25.184Z,85.13
2023-03-27T20:18:51.725Z,84.26
2023-03-27T20:21:18.189Z,84.21
2023-03-27T20:23:44.761Z,85.15
2023-03-27T20:26:11.216Z,84.43
2023-03-27T20:28:37.644Z,83.15
2023-03-27T20:31:04.811Z,81.74
2023-03-27T20:33:31.274Z,80.99
2023-03-27T20:35:58.057Z,80.74
2023-03-27T20:38:24.788Z,80.00
2023-03-27T20:40:53.125Z,79.76
2023-03-27T20:43:20.102Z,80.16
2023-03-27T20:45:46.591Z,80.20
2023-03-27T20:48:13.717Z,80.15
2023-03-27T20:50:42.059Z,80.72
2023-03-27T20:53:10.288Z,80.13
2023-03-27T20:55:43.600Z,79.99
2023-03-27T20:58:16.259Z,80.18
2023-03-27T21:00:42.796Z,80.63
2023-03-27T21:03:10.402Z,80.86
2023-03-27T21:05:36.919Z,81.17
2023-03-27T21:08:03.359Z,81.47
2023-03-27T21:10:29.779Z,82.17
2023-03-27T21:12:56.187Z,81.91
2023-03-27T21:15:22.627Z,81.97
2023-03-27T21:17:49.154Z,82.89
2023-03-27T21:20:15.629Z,82.61
2023-03-27T21:22:42.216Z,83.53
2023-03-27T21:25:08.864Z,83.31
2023-03-27T21:27:35.301Z,83.25
2023-03-27T21:30:01.796Z,83.19
2023-03-27T21:32:28.226Z,83.82
2023-03-27T21:34:54.698Z,84.18
2023-03-27T21:37:21.198Z,84.03
2023-03-27T21:39:47.655Z,84.32
2023-03-27T21:42:14.108Z,84.14
2023-03-27T21:44:40.603Z,83.86
2023-03-27T21:47:07.008Z,83.89
2023-03-27T21:49:33.460Z,84.52
2023-03-27T21:51:59.884Z,84.66
2023-03-27T21:54:26.399Z,85.16
2023-03-27T21:56:52.884Z,83.85
2023-03-27T21:59:19.381Z,84.05
2023-03-27T22:01:45.843Z,83.25
2023-03-27T22:04:12.341Z,82.98
2023-03-27T22:06:38.870Z,82.58
2023-03-27T22:09:05.291Z,83.47
2023-03-27T22:11:31.745Z,82.29
2023-03-27T22:13:58.178Z,82.94
2023-03-27T22:16:24.895Z,81.90
2023-03-27T22:18:51.381Z,80.83
2023-03-27T22:21:19.750Z,79.87
2023-03-27T22:23:46.299Z,76.84
2023-03-27T22:26:12.914Z,77.35
2023-03-27T22:28:39.342Z,77.43
2023-03-27T22:31:06.087Z,78.01
2023-03-27T22:33:32.497Z,78.29
2023-03-27T22:35:59.138Z,79.14
2023-03-27T22:38:25.847Z,80.08
2023-03-27T22:40:52.262Z,81.10
2023-03-27T22:43:22.569Z,81.21
2023-03-27T22:45:50.282Z,81.17
2023-03-27T22:48:16.734Z,81.26
2023-03-27T22:50:43.158Z,81.09
2023-03-27T22:53:09.604Z,80.69
2023-03-27T22:55:36.024Z,81.86
2023-03-27T22:58:02.432Z,81.80
2023-03-27T23:00:28.895Z,81.44
2023-03-27T23:02:55.366Z,81.79
2023-03-27T23:05:21.903Z,82.19
2023-03-27T23:07:48.297Z,82.79
2023-03-27T23:10:14.702Z,81.97
2023-03-27T23:12:41.119Z,82.77
2023-03-27T23:15:08.272Z,82.65
2023-03-27T23:17:34.875Z,82.11
2023-03-27T23:20:01.334Z,82.78
2023-03-27T23:22:27.787Z,81.87
2023-03-27T23:24:54.178Z,82.09
2023-03-27T23:27:20.634Z,82.37
2023-03-27T23:29:47.080Z,82.03
2023-03-27T23:32:13.677Z,81.85
2023-03-27T23:34:40.168Z,82.05
2023-03-27T23:37:06.623Z,82.29
2023-03-27T23:39:33.033Z,82.79
2023-03-27T23:41:59.465Z,82.63
2023-03-27T23:44:25.849Z,83.35
2023-03-27T23:46:52.273Z,83.38
2023-03-27T23:49:18.747Z,83.39
2023-03-27T23:51:45.183Z,83.61
2023-03-27T23:54:11.576Z,83.62
2023-03-27T23:56:38.069Z,84.11
2023-03-27T23:59:04.480Z,84.51
